createdAt,value
2018-09-01T00:00:13.792Z,99957.86
2018-09-01T00:02:42.667Z,99961.78
2018-09-01T00:05:11.192Z,99968.76
2018-09-01T00:07:39.773Z,99965.66
2018-09-01T00:10:08.316Z,99961.63
2018-09-01T00:12:36.880Z,99964.53
2018-09-01T00:15:10.512Z,99970.31
2018-09-01T00:17:39.437Z,99973.70
2018-09-01T00:20:07.965Z,99969.03
2018-09-01T00:22:36.509Z,99971.47
2018-09-01T00:25:05.081Z,99970.86
2018-09-01T00:27:33.623Z,99970.74
2018-09-01T00:30:02.194Z,99975.21
2018-09-01T00:32:31.035Z,99980.63
2018-09-01T00:34:59.537Z,99978.81
2018-09-01T00:37:34.020Z,99978.37
2018-09-01T00:40:02.513Z,99980.94
2018-09-01T00:42:31.359Z,99976.40
2018-09-01T00:44:59.964Z,99976.97
2018-09-01T00:47:28.794Z,99980.55
2018-09-01T00:49:57.388Z,99969.25
2018-09-01T00:52:25.942Z,99978.44
2018-09-01T00:54:54.473Z,99978.81
2018-09-01T00:57:22.969Z,99974.95
2018-09-01T00:59:51.792Z,99975.13
2018-09-01T01:02:20.523Z,99977.02
2018-09-01T01:04:49.108Z,99976.59
2018-09-01T01:07:17.636Z,99976.65
2018-09-01T01:09:46.529Z,99977.27
2018-09-01T01:12:15.072Z,99984.99
2018-09-01T01:14:50.140Z,99983.81
2018-09-01T01:17:18.656Z,99978.92
2018-09-01T01:19:47.215Z,99985.25
2018-09-01T01:22:15.769Z,99990.12
2018-09-01T01:24:44.394Z,99987.80
2018-09-01T01:27:12.917Z,99981.36
2018-09-01T01:29:41.458Z,99980.88
2018-09-01T01:32:09.976Z,99980.57
2018-09-01T01:34:38.559Z,99981.06
2018-09-01T01:37:07.105Z,99975.82
2018-09-01T01:39:35.656Z,99975.67
2018-09-01T01:42:04.203Z,99971.50
2018-09-01T01:44:32.796Z,99969.30
2018-09-01T01:47:01.326Z,99979.75
2018-09-01T01:49:29.880Z,99982.14
2018-09-01T01:51:59.152Z,99979.16
2018-09-01T01:54:27.717Z,99974.47
2018-09-01T01:56:56.240Z,99975.69
2018-09-01T01:59:24.824Z,99976.32
2018-09-01T02:01:53.356Z,99981.42
2018-09-01T02:04:21.913Z,99981.46
2018-09-01T02:06:50.445Z,99984.68
2018-09-01T02:09:19.005Z,99987.48
2018-09-01T02:11:47.533Z,99988.48
2018-09-01T02:14:16.093Z,99989.11
2018-09-01T02:16:44.629Z,99990.23
2018-09-01T02:19:13.185Z,99989.72
2018-09-01T02:21:41.737Z,99989.44
2018-09-01T02:24:10.359Z,99984.14
2018-09-01T02:26:39.044Z,99982.72
2018-09-01T02:29:07.952Z,99987.05
2018-09-01T02:31:36.516Z,99990.52
2018-09-01T02:34:05.100Z,99994.27
2018-09-01T02:36:33.656Z,100000.30
2018-09-01T02:39:02.173Z,99999.63
2018-09-01T02:41:30.712Z,99995.63
2018-09-01T02:43:59.265Z,100003.93
2018-09-01T02:46:27.813Z,100000.83
2018-09-01T02:48:56.322Z,100002.00
2018-09-01T02:51:24.900Z,100001.86
2018-09-01T02:53:53.449Z,100004.54
2018-09-01T02:56:21.971Z,100012.95
2018-09-01T02:58:50.537Z,100008.97
2018-09-01T03:01:24.449Z,100013.52
2018-09-01T03:03:52.977Z,100015.13
2018-09-01T03:06:21.555Z,100021.52
2018-09-01T03:08:50.100Z,100017.19
2018-09-01T03:11:18.724Z,100017.82
2018-09-01T03:13:47.300Z,100014.08
2018-09-01T03:16:15.857Z,100021.27
2018-09-01T03:18:44.408Z,100012.19
2018-09-01T03:21:12.972Z,100017.19
2018-09-01T03:23:41.504Z,100019.47
2018-09-01T03:26:10.064Z,100025.16
2018-09-01T03:28:38.908Z,100020.30
2018-09-01T03:31:07.550Z,100015.41
2018-09-01T03:33:36.091Z,100021.67
2018-09-01T03:36:04.667Z,100020.70
2018-09-01T03:38:33.216Z,100024.23
2018-09-01T03:41:01.790Z,100023.47
2018-09-01T03:43:30.332Z,100019.20
2018-09-01T03:46:03.981Z,100018.66
2018-09-01T03:48:32.933Z,100024.61
2018-09-01T03:51:01.554Z,100022.44
2018-09-01T03:53:30.105Z,100025.22
2018-09-01T03:55:59.643Z,100027.86
2018-09-01T03:58:28.256Z,100024.02
2018-09-01T04:00:56.891Z,100024.55
2018-09-01T04:03:25.429Z,100024.86
2018-09-01T04:05:53.993Z,100026.78
2018-09-01T04:08:22.552Z,100029.56
2018-09-01T04:10:51.143Z,100036.95
2018-09-01T04:13:19.672Z,100025.75
2018-09-01T04:15:48.265Z,100029.33
2018-09-01T04:18:16.848Z,100034.37
2018-09-01T04:20:45.525Z,100039.06
2018-09-01T04:23:14.110Z,100047.27
2018-09-01T04:25:42.695Z,100044.31
2018-09-01T04:28:11.241Z,100048.33
2018-09-01T04:30:39.931Z,100043.52
2018-09-01T04:33:08.460Z,100040.57
2018-09-01T04:35:37.296Z,100048.08
2018-09-01T04:38:05.901Z,100049.09
2018-09-01T04:40:34.522Z,100047.09
2018-09-01T04:43:03.089Z,100044.72
2018-09-01T04:45:31.636Z,100044.81
2018-09-01T04:48:00.200Z,100048.66
2018-09-01T04:50:29.809Z,100047.63
2018-09-01T04:52:58.380Z,100057.95
2018-09-01T04:55:26.910Z,100059.05
2018-09-01T04:57:55.481Z,100057.14
2018-09-01T05:00:24.517Z,100053.41
2018-09-01T05:02:54.152Z,100048.84
2018-09-01T05:05:22.689Z,100046.25
2018-09-01T05:07:51.246Z,100049.73
2018-09-01T05:10:20.069Z,100046.17
2018-09-01T05:12:49.518Z,100054.13
2018-09-01T05:15:18.048Z,100047.88
2018-09-01T05:17:46.636Z,100055.27
2018-09-01T05:20:17.647Z,100059.59
2018-09-01T05:22:46.379Z,100057.48
2018-09-01T05:25:15.153Z,100063.34
2018-09-01T05:27:43.809Z,100055.81
2018-09-01T05:30:12.308Z,100054.02
2018-09-01T05:32:40.865Z,100053.80
2018-09-01T05:35:09.444Z,100052.13
2018-09-01T05:37:38.024Z,100055.80
2018-09-01T05:40:07.481Z,100052.23
2018-09-01T05:42:36.076Z,100057.97
2018-09-01T05:45:04.644Z,100051.34
2018-09-01T05:47:33.448Z,100055.66
2018-09-01T05:50:01.981Z,100053.50
2018-09-01T05:52:30.936Z,100062.99
2018-09-01T05:55:02.058Z,100063.63
2018-09-01T05:57:31.659Z,100063.43
2018-09-01T06:00:00.465Z,100066.25
2018-09-01T06:02:30.287Z,100057.92
2018-09-01T06:04:59.560Z,100064.50
2018-09-01T06:07:28.461Z,100069.40
2018-09-01T06:09:57.253Z,100071.00
2018-09-01T06:12:25.879Z,100065.66
2018-09-01T06:14:54.420Z,100076.78
2018-09-01T06:17:23.023Z,100074.76
2018-09-01T06:19:51.569Z,100072.78
2018-09-01T06:22:20.128Z,100077.73
2018-09-01T06:24:49.865Z,100081.42
2018-09-01T06:27:24.200Z,100085.77
2018-09-01T06:29:52.765Z,100086.30
2018-09-01T06:32:21.409Z,100098.05
2018-09-01T06:34:49.953Z,100093.30
2018-09-01T06:37:18.492Z,100091.87
2018-09-01T06:39:47.059Z,100098.02
2018-09-01T06:42:15.605Z,100101.27
2018-09-01T06:44:44.167Z,100099.42
2018-09-01T06:47:12.700Z,100102.54
2018-09-01T06:49:41.256Z,100103.12
2018-09-01T06:52:09.852Z,100101.53
2018-09-01T06:54:38.524Z,100098.50
2018-09-01T06:57:07.063Z,100097.48
2018-09-01T06:59:35.664Z,100103.06
2018-09-01T07:02:04.308Z,100105.88
2018-09-01T07:04:32.862Z,100108.66
2018-09-01T07:07:01.429Z,100111.03
2018-09-01T07:09:30.873Z,100105.10
2018-09-01T07:11:59.755Z,100114.41
2018-09-01T07:14:28.329Z,100119.41
2018-09-01T07:17:00.308Z,100124.18
2018-09-01T07:19:29.652Z,100120.42
2018-09-01T07:21:58.586Z,100123.13
2018-09-01T07:24:27.641Z,100118.98
2018-09-01T07:26:57.153Z,100113.12
2018-09-01T07:29:28.679Z,100124.33
2018-09-01T07:31:57.937Z,100122.79
2018-09-01T07:34:28.924Z,100129.75
2018-09-01T07:36:57.799Z,100132.80
2018-09-01T07:39:26.722Z,100136.02
2018-09-01T07:42:02.263Z,100142.33
2018-09-01T07:44:31.153Z,100141.55
2018-09-01T07:46:59.728Z,100149.03
2018-09-01T07:49:34.490Z,100152.31
2018-09-01T07:52:03.308Z,100159.36
2018-09-01T07:54:31.924Z,100161.76
2018-09-01T07:57:01.324Z,100155.34
2018-09-01T07:59:29.937Z,100162.93
2018-09-01T08:01:58.810Z,100162.14
2018-09-01T08:04:27.420Z,100160.73
2018-09-01T08:06:55.951Z,100164.64
2018-09-01T08:09:24.544Z,100161.69
2018-09-01T08:11:55.157Z,100166.04
2018-09-01T08:14:23.762Z,100169.78
2018-09-01T08:16:52.998Z,100168.80
2018-09-01T08:19:22.410Z,100162.27
2018-09-01T08:21:50.936Z,100167.47
2018-09-01T08:24:20.043Z,100174.69
2018-09-01T08:26:48.573Z,100175.58
2018-09-01T08:29:23.444Z,100173.98
2018-09-01T08:31:51.956Z,100169.80
2018-09-01T08:34:20.834Z,100167.55
2018-09-01T08:36:49.340Z,100170.86
2018-09-01T08:39:18.117Z,100179.04
2018-09-01T08:41:47.072Z,100173.81
2018-09-01T08:44:16.417Z,100172.47
2018-09-01T08:46:47.332Z,100175.53
2018-09-01T08:49:17.309Z,100186.72
2018-09-01T08:51:48.818Z,100180.35
2018-09-01T08:54:25.426Z,100184.11
2018-09-01T08:56:54.173Z,100187.14
2018-09-01T08:59:22.740Z,100184.16
2018-09-01T09:01:51.314Z,100192.03
2018-09-01T09:04:19.868Z,100198.19
2018-09-01T09:06:48.457Z,100193.59
2018-09-01T09:09:16.990Z,100199.66
2018-09-01T09:11:54.844Z,100196.65
2018-09-01T09:14:23.469Z,100192.81
2018-09-01T09:16:52.588Z,100196.19
2018-09-01T09:19:21.143Z,100195.09
2018-09-01T09:21:49.699Z,100190.88
2018-09-01T09:24:19.463Z,100198.89
2018-09-01T09:26:48.069Z,100191.84
2018-09-01T09:29:16.913Z,100199.36
2018-09-01T09:31:45.804Z,100198.28
2018-09-01T09:34:15.237Z,100197.57
2018-09-01T09:36:43.858Z,100200.71
2018-09-01T09:39:12.373Z,100195.62
2018-09-01T09:41:41.923Z,100196.45
2018-09-01T09:44:13.464Z,100204.62
2018-09-01T09:46:42.010Z,100200.72
2018-09-01T09:49:10.734Z,100212.84
2018-09-01T09:51:39.384Z,100210.68
2018-09-01T09:54:08.382Z,100209.98
2018-09-01T09:56:36.976Z,100202.95
2018-09-01T09:59:05.897Z,100205.95
2018-09-01T10:01:41.597Z,100198.42
2018-09-01T10:04:10.969Z,100197.56
2018-09-01T10:06:40.853Z,100199.52
2018-09-01T10:09:17.610Z,100191.79
2018-09-01T10:11:46.821Z,100197.75
2018-09-01T10:14:16.396Z,100195.41
2018-09-01T10:16:45.762Z,100192.11
2018-09-01T10:19:14.570Z,100185.87
2018-09-01T10:21:43.695Z,100187.91
2018-09-01T10:24:13.439Z,100173.44
2018-09-01T10:26:42.678Z,100174.34
2018-09-01T10:29:12.082Z,100176.93
2018-09-01T10:31:41.402Z,100172.05
2018-09-01T10:34:09.973Z,100173.58
2018-09-01T10:36:38.552Z,100161.59
2018-09-01T10:39:08.833Z,100165.70
2018-09-01T10:41:37.528Z,100158.98
2018-09-01T10:44:06.645Z,100155.16
2018-09-01T10:46:35.271Z,100149.95
2018-09-01T10:49:03.890Z,100153.00
2018-09-01T10:51:32.453Z,100145.79
2018-09-01T10:54:01.032Z,100145.97
2018-09-01T10:56:29.672Z,100139.52
2018-09-01T10:58:58.862Z,100143.39
2018-09-01T11:01:27.490Z,100147.05
2018-09-01T11:03:58.019Z,100138.09
2018-09-01T11:06:26.634Z,100141.43
2018-09-01T11:08:55.489Z,100136.98
2018-09-01T11:11:24.278Z,100131.45
2018-09-01T11:13:52.850Z,100137.55
2018-09-01T11:16:21.423Z,100136.16
2018-09-01T11:18:50.354Z,100139.06
2018-09-01T11:21:19.061Z,100142.45
2018-09-01T11:23:47.610Z,100138.19
2018-09-01T11:26:16.253Z,100132.09
2018-09-01T11:28:48.003Z,100140.83
2018-09-01T11:31:16.660Z,100130.52
2018-09-01T11:33:45.313Z,100130.12
2018-09-01T11:36:13.857Z,100131.28
2018-09-01T11:38:42.463Z,100138.89
2018-09-01T11:41:11.092Z,100138.89
2018-09-01T11:43:40.102Z,100124.03
2018-09-01T11:46:08.842Z,100127.91
2018-09-01T11:48:37.418Z,100135.24
2018-09-01T11:51:06.553Z,100129.59
2018-09-01T11:53:35.223Z,100125.83
2018-09-01T11:56:04.347Z,100126.06
2018-09-01T11:58:32.982Z,100119.49
2018-09-01T12:01:01.706Z,100118.91
2018-09-01T12:03:30.290Z,100115.05
2018-09-01T12:05:58.811Z,100124.51
2018-09-01T12:08:27.356Z,100114.30
2018-09-01T12:10:55.947Z,100105.97
2018-09-01T12:13:24.501Z,100125.08
2018-09-01T12:15:53.119Z,100125.13
2018-09-01T12:18:21.640Z,100125.59
2018-09-01T12:20:50.152Z,100120.47
2018-09-01T12:23:18.737Z,100127.89
2018-09-01T12:25:47.248Z,100120.16
2018-09-01T12:28:15.853Z,100115.06
2018-09-01T12:30:44.324Z,100110.81
2018-09-01T12:33:12.903Z,100113.70
2018-09-01T12:35:41.417Z,100121.33
2018-09-01T12:38:09.958Z,100112.05
2018-09-01T12:40:38.478Z,100124.73
2018-09-01T12:43:07.052Z,100130.92
2018-09-01T12:45:35.577Z,100125.28
2018-09-01T12:48:04.445Z,100126.98
2018-09-01T12:50:32.965Z,100125.69
2018-09-01T12:53:01.862Z,100125.42
2018-09-01T12:55:30.396Z,100117.33
2018-09-01T12:57:59.039Z,100120.55
2018-09-01T13:00:27.613Z,100122.44
2018-09-01T13:02:56.228Z,100120.41
2018-09-01T13:05:24.760Z,100109.84
2018-09-01T13:07:53.452Z,100123.31
2018-09-01T13:10:21.962Z,100118.44
2018-09-01T13:12:50.806Z,100129.88
2018-09-01T13:15:19.398Z,100129.05
2018-09-01T13:17:47.976Z,100121.38
2018-09-01T13:20:16.525Z,100124.78
2018-09-01T13:22:47.785Z,100135.09
2018-09-01T13:25:16.399Z,100137.16
2018-09-01T13:27:47.392Z,100127.13
2018-09-01T13:30:17.062Z,100126.26
2018-09-01T13:32:45.676Z,100123.39
2018-09-01T13:35:14.244Z,100116.73
2018-09-01T13:37:43.112Z,100113.12
2018-09-01T13:40:11.772Z,100117.30
2018-09-01T13:42:40.693Z,100115.85
2018-09-01T13:45:09.272Z,100118.40
2018-09-01T13:47:37.809Z,100116.49
2018-09-01T13:50:06.409Z,100121.51
2018-09-01T13:52:34.941Z,100119.84
2018-09-01T13:59:56.713Z,100116.59
2018-09-01T14:02:25.321Z,100118.83
2018-09-01T14:04:54.883Z,100117.11
2018-09-01T14:07:23.930Z,100115.33
2018-09-01T14:09:53.285Z,100109.41
2018-09-01T14:12:22.634Z,100113.20
2018-09-01T14:14:57.145Z,100107.89
2018-09-01T14:17:26.521Z,100111.00
2018-09-01T14:19:55.113Z,100112.94
2018-09-01T14:22:24.593Z,100113.97
2018-09-01T14:24:53.192Z,100113.61
2018-09-01T14:27:21.784Z,100111.91
2018-09-01T14:29:50.685Z,100113.91
2018-09-01T14:32:22.072Z,100111.33
2018-09-01T14:34:52.249Z,100103.42
2018-09-01T14:37:21.698Z,100107.56
2018-09-01T14:39:52.867Z,100105.45
2018-09-01T14:42:22.475Z,100107.58
2018-09-01T14:44:51.128Z,100104.80
2018-09-01T14:47:19.843Z,100106.84
2018-09-01T14:49:49.229Z,100095.45
2018-09-01T14:52:18.948Z,100110.94
2018-09-01T14:54:47.588Z,100111.50
2018-09-01T14:57:16.125Z,100104.35
2018-09-01T14:59:46.231Z,100108.31
2018-09-01T15:02:16.859Z,100100.85
2018-09-01T15:04:45.637Z,100101.61
2018-09-01T15:07:14.776Z,100105.36
2018-09-01T15:09:44.906Z,100102.27
2018-09-01T15:12:15.233Z,100100.95
2018-09-01T15:14:47.260Z,100105.08
2018-09-01T15:17:16.724Z,100107.05
2018-09-01T15:19:45.526Z,100106.27
2018-09-01T15:22:16.100Z,100108.41
2018-09-01T15:24:45.750Z,100107.39
2018-09-01T15:27:15.668Z,100106.98
2018-09-01T15:29:45.099Z,100106.94
2018-09-01T15:32:14.826Z,100108.63
2018-09-01T15:34:43.495Z,100108.30
2018-09-01T15:37:12.038Z,100098.34
2018-09-01T15:39:41.345Z,100097.40
2018-09-01T15:42:10.105Z,100101.47
2018-09-01T15:44:40.028Z,100100.45
2018-09-01T15:47:14.424Z,100098.37
2018-09-01T15:49:44.463Z,100099.48
2018-09-01T15:52:13.464Z,100099.62
2018-09-01T15:54:42.716Z,100099.59
2018-09-01T15:57:12.812Z,100104.13
2018-09-01T15:59:41.794Z,100100.63
2018-09-01T16:02:11.544Z,100099.25
2018-09-01T16:04:42.115Z,100104.36
2018-09-01T16:07:11.181Z,100101.56
2018-09-01T16:09:40.232Z,100098.89
2018-09-01T16:12:10.275Z,100102.73
2018-09-01T16:14:39.076Z,100101.09
2018-09-01T16:17:08.828Z,100094.96
2018-09-01T16:19:38.593Z,100098.22
2018-09-01T16:22:07.260Z,100101.23
2018-09-01T16:24:37.806Z,100095.63
2018-09-01T16:27:06.577Z,100096.09
2018-09-01T16:29:46.230Z,100102.62
2018-09-01T16:32:14.937Z,100099.89
2018-09-01T16:34:44.622Z,100108.22
2018-09-01T16:37:13.762Z,100102.04
2018-09-01T16:39:42.337Z,100107.06
2018-09-01T16:42:14.725Z,100104.35
2018-09-01T16:44:43.525Z,100101.80
2018-09-01T16:47:12.166Z,100111.02
2018-09-01T16:49:40.928Z,100107.35
2018-09-01T16:52:09.543Z,100112.76
2018-09-01T16:54:38.076Z,100110.02
2018-09-01T16:57:07.738Z,100110.83
2018-09-01T16:59:37.035Z,100112.19
2018-09-01T17:02:06.941Z,100111.77
2018-09-01T17:04:35.882Z,100121.39
2018-09-01T17:07:04.597Z,100115.23
2018-09-01T17:09:34.034Z,100121.40
2018-09-01T17:12:02.657Z,100123.06
2018-09-01T17:14:32.023Z,100117.47
2018-09-01T17:17:01.449Z,100119.37
2018-09-01T17:19:30.677Z,100130.19
2018-09-01T17:21:59.335Z,100129.91
2018-09-01T17:24:27.905Z,100120.80
2018-09-01T17:26:56.880Z,100120.56
2018-09-01T17:29:25.402Z,100114.97
2018-09-01T17:31:53.957Z,100114.22
2018-09-01T17:34:23.416Z,100114.86
2018-09-01T17:36:52.085Z,100113.84
2018-09-01T17:39:20.809Z,100115.02
2018-09-01T17:41:49.385Z,100115.40
2018-09-01T17:44:18.141Z,100116.23
2018-09-01T17:46:47.216Z,100115.78
2018-09-01T17:49:15.743Z,100117.70
2018-09-01T17:51:44.335Z,100116.80
2018-09-01T17:54:13.886Z,100117.52
2018-09-01T17:56:43.102Z,100122.73
2018-09-01T17:59:12.205Z,100122.03
2018-09-01T18:01:41.140Z,100116.36
2018-09-01T18:04:10.178Z,100121.09
2018-09-01T18:06:38.732Z,100128.09
2018-09-01T18:09:07.433Z,100121.70
2018-09-01T18:11:36.089Z,100122.41
2018-09-01T18:14:04.692Z,100128.08
2018-09-01T18:16:33.240Z,100125.54
2018-09-01T18:19:01.781Z,100126.73
2018-09-01T18:21:30.288Z,100127.34
2018-09-01T18:23:58.923Z,100130.35
2018-09-01T18:26:27.433Z,100128.62
2018-09-01T18:28:55.973Z,100133.43
2018-09-01T18:31:26.952Z,100136.56
2018-09-01T18:33:55.501Z,100132.36
2018-09-01T18:36:24.426Z,100133.17
2018-09-01T18:38:53.124Z,100136.73
2018-09-01T18:41:21.657Z,100143.75
2018-09-01T18:43:50.228Z,100145.48
2018-09-01T18:46:18.798Z,100151.09
2018-09-01T18:48:47.361Z,100145.94
2018-09-01T18:51:19.389Z,100151.89
2018-09-01T18:53:48.082Z,100151.87
2018-09-01T18:56:17.126Z,100149.05
2018-09-01T18:58:45.706Z,100147.92
2018-09-01T19:01:14.261Z,100146.83
2018-09-01T19:03:42.902Z,100153.39
2018-09-01T19:06:11.436Z,100157.78
2018-09-01T19:08:39.980Z,100154.41
2018-09-01T19:11:08.512Z,100155.21
2018-09-01T19:13:37.101Z,100159.18
2018-09-01T19:16:05.729Z,100155.89
2018-09-01T19:18:34.279Z,100160.94
2018-09-01T19:21:02.854Z,100161.97
2018-09-01T19:23:31.367Z,100171.31
2018-09-01T19:26:00.156Z,100167.22
2018-09-01T19:28:28.754Z,100172.19
2018-09-01T19:30:57.265Z,100169.78
2018-09-01T19:33:25.827Z,100164.54
2018-09-01T19:35:54.342Z,100168.11
2018-09-01T19:38:22.884Z,100171.41
2018-09-01T19:40:51.395Z,100175.21
2018-09-01T19:43:19.940Z,100174.19
2018-09-01T19:45:48.493Z,100172.69
2018-09-01T19:48:17.862Z,100178.17
2018-09-01T19:50:46.498Z,100183.75
2018-09-01T19:53:15.053Z,100186.36
2018-09-01T19:55:43.824Z,100188.30
2018-09-01T19:58:12.668Z,100187.84
2018-09-01T20:00:41.552Z,100186.06
2018-09-01T20:03:10.126Z,100182.09
2018-09-01T20:05:38.648Z,100180.66
2018-09-01T20:08:07.226Z,100179.75
2018-09-01T20:10:35.795Z,100180.94
2018-09-01T20:13:06.239Z,100183.09
2018-09-01T20:15:34.945Z,100174.91
2018-09-01T20:18:03.644Z,100189.63
2018-09-01T20:20:32.213Z,100186.17
2018-09-01T20:23:00.780Z,100181.04
2018-09-01T20:25:29.392Z,100184.68
2018-09-01T20:27:57.945Z,100188.95
2018-09-01T20:30:26.521Z,100187.23
2018-09-01T20:32:55.049Z,100185.07
2018-09-01T20:35:29.114Z,100174.95
2018-09-01T20:37:57.700Z,100185.08
2018-09-01T20:40:26.243Z,100183.40
2018-09-01T20:42:59.221Z,100177.88
2018-09-01T20:45:32.791Z,100178.91
2018-09-01T20:48:02.966Z,100164.41
2018-09-01T20:50:35.333Z,100178.41
2018-09-01T20:53:13.212Z,100181.15
2018-09-01T20:55:44.956Z,100185.30
2018-09-01T20:58:17.250Z,100191.07
2018-09-01T21:00:47.841Z,100180.38
2018-09-01T21:03:18.917Z,100189.14
2018-09-01T21:05:50.107Z,100185.45
2018-09-01T21:08:21.563Z,100181.58
2018-09-01T21:10:50.603Z,100176.86
2018-09-01T21:13:19.987Z,100176.20
2018-09-01T21:15:49.700Z,100179.81
2018-09-01T21:18:21.195Z,100180.70
2018-09-01T21:20:52.210Z,100177.67
2018-09-01T21:23:24.160Z,100180.38
2018-09-01T21:25:53.621Z,100176.75
2018-09-01T21:28:25.016Z,100176.06
2018-09-01T21:30:56.421Z,100172.21
2018-09-01T21:33:29.278Z,100177.77
2018-09-01T21:35:59.128Z,100173.70
2018-09-01T21:38:33.077Z,100176.13
2018-09-01T21:41:03.855Z,100175.97
2018-09-01T21:43:33.418Z,100180.98
2018-09-01T21:46:05.009Z,100167.13
2018-09-01T21:48:35.821Z,100166.22
2018-09-01T21:51:05.311Z,100163.30
2018-09-01T21:53:39.355Z,100166.50
2018-09-01T21:56:10.607Z,100162.86
2018-09-01T21:58:48.791Z,100163.98
2018-09-01T22:01:26.454Z,100157.50
2018-09-01T22:03:59.856Z,100164.52
2018-09-01T22:06:29.503Z,100169.89
2018-09-01T22:12:12.152Z,100160.75
2018-09-01T22:14:52.062Z,100163.05
2018-09-01T22:17:22.904Z,100166.48
2018-09-01T22:19:59.342Z,100161.47
2018-09-01T22:22:30.145Z,100158.56
2018-09-01T22:25:03.476Z,100159.13
2018-09-01T22:27:36.667Z,100160.11
2018-09-01T22:30:11.015Z,100159.39
2018-09-01T22:32:41.989Z,100157.78
2018-09-01T22:35:11.525Z,100158.98
2018-09-01T22:37:44.484Z,100156.25
2018-09-01T22:40:13.620Z,100157.19
2018-09-01T22:42:43.578Z,100150.84
2018-09-01T22:45:12.819Z,100155.55
2018-09-01T22:47:43.689Z,100148.84
2018-09-01T22:50:12.771Z,100142.65
2018-09-01T22:52:42.237Z,100148.61
2018-09-01T22:55:11.368Z,100149.22
2018-09-01T22:57:41.876Z,100147.84
2018-09-01T23:00:11.250Z,100154.50
2018-09-01T23:02:40.893Z,100151.23
2018-09-01T23:05:11.403Z,100153.63
2018-09-01T23:07:39.955Z,100151.48
2018-09-01T23:10:12.204Z,100152.09
2018-09-01T23:12:41.498Z,100151.83
2018-09-01T23:15:12.079Z,100151.33
2018-09-01T23:17:41.796Z,100146.70
2018-09-01T23:20:11.084Z,100147.55
2018-09-01T23:22:40.463Z,100149.32
2018-09-01T23:25:09.048Z,100146.80
2018-09-01T23:27:39.178Z,100150.52
2018-09-01T23:30:09.146Z,100144.67
2018-09-01T23:32:39.825Z,100146.95
2018-09-01T23:35:09.464Z,100135.60
2018-09-01T23:37:39.607Z,100147.67
2018-09-01T23:40:09.326Z,100151.77
2018-09-01T23:42:39.284Z,100151.15
2018-09-01T23:45:09.248Z,100154.32
2018-09-01T23:47:40.023Z,100152.80
2018-09-01T23:50:10.632Z,100149.76
2018-09-01T23:52:39.884Z,100146.84
2018-09-01T23:55:10.793Z,100149.91
2018-09-01T23:57:40.281Z,100141.39
